createdAt,value
2023-04-03T00:01:20.425Z,59.50
2023-04-03T00:03:50.094Z,59.70
2023-04-03T00:06:19.830Z,59.50
2023-04-03T00:08:47.169Z,59.80
2023-04-03T00:11:14.657Z,59.90
2023-04-03T00:13:47.157Z,60.00
2023-04-03T00:16:16.905Z,59.90
2023-04-03T00:18:48.580Z,59.60
2023-04-03T00:21:16.604Z,59.60
2023-04-03T00:23:46.283Z,59.70
2023-04-03T00:26:15.986Z,59.70
2023-04-03T00:28:45.887Z,59.60
2023-04-03T00:31:16.887Z,59.70
2023-04-03T00:33:44.254Z,59.60
2023-04-03T00:36:12.293Z,59.50
2023-04-03T00:38:39.922Z,59.20
2023-04-03T00:41:10.413Z,59.30
2023-04-03T00:43:37.758Z,59.20
2023-04-03T00:46:05.399Z,59.00
2023-04-03T00:48:37.020Z,59.20
2023-04-03T00:51:10.672Z,59.30
2023-04-03T00:53:59.888Z,59.30
2023-04-03T00:56:32.036Z,59.30
2023-04-03T00:59:05.232Z,59.20
2023-04-03T01:01:35.488Z,58.90
2023-04-03T01:04:04.218Z,59.00
2023-04-03T01:06:36.312Z,59.10
2023-04-03T01:09:07.607Z,59.20
2023-04-03T01:11:34.961Z,59.30
2023-04-03T01:14:02.948Z,59.10
2023-04-03T01:16:32.869Z,59.20
2023-04-03T01:19:01.712Z,59.20
2023-04-03T01:21:59.600Z,59.50
2023-04-03T01:24:44.496Z,59.50
2023-04-03T01:27:14.403Z,59.30
2023-04-03T01:29:42.425Z,59.70
2023-04-03T01:32:12.004Z,59.50
2023-04-03T01:34:39.352Z,59.40
2023-04-03T01:37:09.091Z,59.30
2023-04-03T01:39:38.526Z,59.30
2023-04-03T01:42:08.145Z,59.30
2023-04-03T01:44:35.462Z,59.20
2023-04-03T01:47:02.755Z,59.30
2023-04-03T01:49:29.989Z,59.40
2023-04-03T01:51:57.249Z,59.00
2023-04-03T01:54:24.543Z,59.00
2023-04-03T01:56:52.217Z,59.30
2023-04-03T01:59:20.256Z,59.20
2023-04-03T02:01:47.603Z,59.10
2023-04-03T02:04:14.883Z,59.10
2023-04-03T02:06:42.231Z,59.00
2023-04-03T02:09:09.504Z,58.90
2023-04-03T02:11:36.866Z,58.90
2023-04-03T02:14:04.133Z,59.00
2023-04-03T02:16:33.611Z,58.80
2023-04-03T02:19:00.954Z,59.00
2023-04-03T02:21:28.880Z,58.90
2023-04-03T02:23:56.233Z,58.90
2023-04-03T02:26:26.038Z,58.90
2023-04-03T02:28:53.346Z,59.00
2023-04-03T02:31:21.829Z,59.00
2023-04-03T02:33:49.357Z,59.00
2023-04-03T02:36:16.790Z,59.10
2023-04-03T02:38:44.581Z,59.00
2023-04-03T02:41:16.964Z,59.00
2023-04-03T02:43:44.222Z,58.80
2023-04-03T02:46:11.531Z,58.90
2023-04-03T02:48:38.903Z,58.80
2023-04-03T02:51:06.174Z,58.70
2023-04-03T02:53:33.586Z,58.70
2023-04-03T02:56:00.831Z,58.80
2023-04-03T02:58:28.111Z,58.50
2023-04-03T03:00:55.489Z,58.60
2023-04-03T03:03:22.770Z,58.70
2023-04-03T03:05:50.210Z,58.60
2023-04-03T03:08:21.075Z,58.60
2023-04-03T03:10:48.406Z,58.60
2023-04-03T03:13:15.693Z,58.70
2023-04-03T03:15:43.019Z,58.70
2023-04-03T03:18:10.427Z,58.60
2023-04-03T03:20:37.983Z,58.60
2023-04-03T03:23:05.438Z,58.60
2023-04-03T03:25:35.165Z,58.50
2023-04-03T03:28:02.606Z,58.60
2023-04-03T03:30:29.870Z,58.60
2023-04-03T03:32:57.190Z,58.60
2023-04-03T03:35:24.645Z,58.60
2023-04-03T03:37:54.335Z,58.50
2023-04-03T03:40:21.617Z,58.50
2023-04-03T03:42:51.073Z,58.60
2023-04-03T03:45:20.702Z,58.50
2023-04-03T03:47:47.940Z,58.50
2023-04-03T03:50:15.590Z,58.60
2023-04-03T03:52:42.870Z,58.80
2023-04-03T03:55:12.728Z,58.90
2023-04-03T03:57:39.943Z,58.90
2023-04-03T04:00:08.208Z,58.90
2023-04-03T04:02:35.794Z,58.90
2023-04-03T04:05:03.337Z,58.70
2023-04-03T04:07:30.734Z,58.70
2023-04-03T04:09:57.980Z,58.70
2023-04-03T04:12:25.289Z,58.50
2023-04-03T04:14:54.884Z,58.80
2023-04-03T04:17:22.932Z,58.70
2023-04-03T04:19:50.505Z,58.40
2023-04-03T04:22:17.806Z,58.30
2023-04-03T04:24:45.058Z,58.20
2023-04-03T04:27:14.649Z,58.20
2023-04-03T04:29:41.906Z,58.00
2023-04-03T04:32:09.877Z,58.00
2023-04-03T04:34:39.369Z,57.90
2023-04-03T04:37:09.592Z,57.60
2023-04-03T04:39:36.952Z,57.70
2023-04-03T04:42:04.491Z,57.50
2023-04-03T04:44:31.852Z,57.40
2023-04-03T04:46:59.134Z,57.30
2023-04-03T04:49:28.876Z,57.40
2023-04-03T04:51:56.480Z,57.40
2023-04-03T04:54:23.837Z,57.30
2023-04-03T04:56:51.136Z,57.20
2023-04-03T04:59:19.996Z,57.10
2023-04-03T05:01:51.146Z,57.00
2023-04-03T05:04:21.198Z,57.10
2023-04-03T05:06:50.681Z,57.20
2023-04-03T05:09:21.189Z,57.10
2023-04-03T05:11:48.544Z,57.10
2023-04-03T05:14:21.426Z,57.00
2023-04-03T05:16:50.827Z,56.90
2023-04-03T05:19:18.771Z,56.90
2023-04-03T05:21:48.498Z,56.90
2023-04-03T05:24:19.026Z,56.80
2023-04-03T05:26:48.555Z,57.00
2023-04-03T05:29:16.015Z,57.10
2023-04-03T05:31:43.368Z,57.10
2023-04-03T05:34:11.010Z,57.40
2023-04-03T05:36:38.264Z,57.30
2023-04-03T05:39:08.138Z,57.30
2023-04-03T05:41:37.996Z,57.30
2023-04-03T05:44:07.704Z,57.30
2023-04-03T05:46:34.996Z,57.50
2023-04-03T05:49:07.131Z,57.50
2023-04-03T05:51:38.096Z,57.60
2023-04-03T05:54:35.290Z,57.70
2023-04-03T05:57:02.877Z,57.40
2023-04-03T05:59:30.173Z,58.00
2023-04-03T06:01:57.451Z,57.60
2023-04-03T06:04:24.935Z,57.60
2023-04-03T06:06:59.684Z,57.70
2023-04-03T06:09:30.200Z,57.60
2023-04-03T06:11:59.683Z,57.50
2023-04-03T06:14:27.587Z,57.50
2023-04-03T06:16:55.857Z,57.60
2023-04-03T06:19:27.547Z,57.60
2023-04-03T06:21:57.504Z,57.50
2023-04-03T06:24:26.156Z,57.70
2023-04-03T06:26:56.494Z,57.50
2023-04-03T06:29:24.261Z,57.60
2023-04-03T06:31:52.495Z,57.60
2023-04-03T06:34:19.806Z,57.50
2023-04-03T06:36:47.292Z,57.30
2023-04-03T06:39:23.185Z,57.30
2023-04-03T06:41:51.784Z,57.00
2023-04-03T06:44:19.321Z,57.20
2023-04-03T06:46:47.672Z,57.40
2023-04-03T06:49:15.988Z,57.30
2023-04-03T06:51:43.372Z,57.40
2023-04-03T06:54:10.738Z,57.60
2023-04-03T06:56:38.126Z,57.60
2023-04-03T06:59:05.675Z,57.60
2023-04-03T07:01:35.434Z,57.60
2023-04-03T07:04:05.188Z,57.50
2023-04-03T07:06:34.014Z,57.40
2023-04-03T07:09:01.726Z,57.30
2023-04-03T07:11:33.633Z,57.10
2023-04-03T07:14:03.878Z,57.00
2023-04-03T07:16:33.680Z,56.70
2023-04-03T07:19:03.936Z,56.20
2023-04-03T07:21:31.801Z,56.20
2023-04-03T07:24:01.632Z,56.20
2023-04-03T07:26:34.329Z,56.10
2023-04-03T07:29:04.138Z,55.70
2023-04-03T07:31:34.831Z,55.50
2023-04-03T07:34:02.360Z,55.70
2023-04-03T07:36:34.335Z,55.40
2023-04-03T07:39:04.125Z,55.10
2023-04-03T07:41:33.741Z,54.70
2023-04-03T07:44:01.628Z,55.10
2023-04-03T07:46:31.367Z,55.10
2023-04-03T07:48:58.845Z,55.10
2023-04-03T07:51:29.247Z,55.20
2023-04-03T07:53:58.973Z,55.00
2023-04-03T07:56:26.313Z,54.80
2023-04-03T07:58:54.633Z,54.90
2023-04-03T08:01:24.376Z,55.00
2023-04-03T08:03:51.991Z,55.00
2023-04-03T08:06:26.212Z,55.20
2023-04-03T08:09:00.608Z,55.20
2023-04-03T08:11:31.162Z,55.00
2023-04-03T08:13:59.134Z,54.60
2023-04-03T08:16:27.972Z,54.40
2023-04-03T08:18:56.095Z,54.30
2023-04-03T08:21:26.381Z,54.30
2023-04-03T08:23:55.898Z,54.60
2023-04-03T08:26:23.309Z,54.90
2023-04-03T08:28:51.131Z,55.00
2023-04-03T08:31:20.986Z,55.20
2023-04-03T08:33:53.054Z,55.50
2023-04-03T08:36:30.565Z,55.40
2023-04-03T08:38:58.407Z,55.50
2023-04-03T08:41:42.421Z,55.80
2023-04-03T08:44:34.172Z,56.30
2023-04-03T08:47:30.884Z,57.50
2023-04-03T08:50:11.079Z,57.70
2023-04-03T08:52:51.546Z,58.80
2023-04-03T08:55:22.060Z,57.30
2023-04-03T08:57:52.136Z,57.30
2023-04-03T09:00:23.489Z,57.80
2023-04-03T09:02:52.447Z,58.40
2023-04-03T09:05:26.654Z,58.80
2023-04-03T09:08:06.411Z,59.40
2023-04-03T09:10:39.050Z,59.30
2023-04-03T09:13:15.153Z,59.20
2023-04-03T09:15:42.997Z,59.20
2023-04-03T09:18:29.619Z,59.00
2023-04-03T09:21:22.113Z,59.00
2023-04-03T09:23:52.842Z,58.90
2023-04-03T09:26:37.745Z,59.10
2023-04-03T09:29:08.950Z,59.30
2023-04-03T09:31:42.594Z,59.10
2023-04-03T09:34:23.115Z,59.10
2023-04-03T09:36:56.634Z,59.20
2023-04-03T09:39:28.163Z,58.90
2023-04-03T09:42:00.589Z,58.00
2023-04-03T09:44:40.613Z,58.30
2023-04-03T09:47:20.302Z,57.20
2023-04-03T09:49:47.563Z,56.20
2023-04-03T09:52:27.412Z,56.00
2023-04-03T09:54:54.815Z,55.00
2023-04-03T09:57:34.493Z,55.10
2023-04-03T10:00:06.780Z,54.60
2023-04-03T10:02:37.709Z,55.10
2023-04-03T10:05:28.401Z,54.60
2023-04-03T10:08:25.004Z,54.50
2023-04-03T10:11:07.756Z,54.30
2023-04-03T10:13:48.685Z,53.50
2023-04-03T10:16:22.549Z,53.60
2023-04-03T10:19:16.810Z,53.50
2023-04-03T10:21:44.042Z,53.20
2023-04-03T10:24:21.961Z,52.80
2023-04-03T10:27:11.690Z,53.00
2023-04-03T10:29:49.746Z,53.10
2023-04-03T10:32:23.786Z,53.30
2023-04-03T10:35:14.629Z,52.50
2023-04-03T10:38:18.006Z,51.20
2023-04-03T10:41:04.178Z,51.80
2023-04-03T10:43:40.098Z,52.00
2023-04-03T10:46:12.155Z,50.80
2023-04-03T10:48:50.882Z,51.40
2023-04-03T10:51:36.484Z,52.00
2023-04-03T10:54:16.045Z,51.40
2023-04-03T10:57:04.571Z,51.40
2023-04-03T11:00:05.365Z,50.50
2023-04-03T11:02:53.811Z,50.60
2023-04-03T11:05:51.637Z,50.30
2023-04-03T11:08:24.552Z,49.80
2023-04-03T11:11:01.383Z,49.70
2023-04-03T11:13:34.647Z,49.80
2023-04-03T11:16:03.747Z,49.10
2023-04-03T11:18:49.519Z,49.30
2023-04-03T11:21:25.613Z,48.90
2023-04-03T11:23:54.770Z,48.60
2023-04-03T11:26:26.433Z,48.60
2023-04-03T11:29:01.099Z,48.30
2023-04-03T11:31:54.197Z,48.10
2023-04-03T11:34:46.669Z,48.90
2023-04-03T11:37:19.127Z,48.40
2023-04-03T11:39:59.331Z,48.80
2023-04-03T11:42:29.547Z,48.40
2023-04-03T11:45:35.610Z,48.40
2023-04-03T11:48:28.191Z,48.50
2023-04-03T11:50:57.749Z,48.20
2023-04-03T11:53:30.726Z,48.30
2023-04-03T11:56:04.910Z,47.70
2023-04-03T11:58:34.698Z,47.90
2023-04-03T12:01:07.848Z,47.90
2023-04-03T12:03:58.833Z,47.90
2023-04-03T12:06:28.723Z,48.20
2023-04-03T12:08:57.563Z,48.40
2023-04-03T12:11:31.892Z,48.00
2023-04-03T12:13:59.088Z,48.10
2023-04-03T12:16:30.664Z,48.50
2023-04-03T12:19:05.208Z,48.50
2023-04-03T12:21:47.663Z,48.60
2023-04-03T12:24:18.056Z,48.80
2023-04-03T12:27:01.121Z,48.80
2023-04-03T12:29:34.468Z,48.80
2023-04-03T12:32:08.407Z,48.20
2023-04-03T12:34:47.481Z,48.10
2023-04-03T12:37:45.763Z,48.10
2023-04-03T12:40:39.882Z,48.00
2023-04-03T12:43:41.137Z,47.80
2023-04-03T12:46:08.424Z,47.50
2023-04-03T12:48:45.959Z,47.50
2023-04-03T12:51:36.986Z,47.30
2023-04-03T12:54:30.085Z,47.40
2023-04-03T12:57:17.995Z,47.60
2023-04-03T12:59:47.563Z,47.30
2023-04-03T13:02:31.097Z,47.90
2023-04-03T13:05:10.242Z,46.90
2023-04-03T13:07:41.979Z,47.20
2023-04-03T13:10:09.392Z,47.00
2023-04-03T13:12:53.145Z,48.20
2023-04-03T13:15:28.133Z,47.10
2023-04-03T13:17:58.578Z,46.70
2023-04-03T13:20:32.449Z,46.30
2023-04-03T13:23:05.457Z,47.30
2023-04-03T13:25:38.022Z,46.80
2023-04-03T13:28:14.203Z,46.00
2023-04-03T13:30:55.574Z,46.40
2023-04-03T13:33:26.621Z,46.40
2023-04-03T13:36:01.616Z,46.30
2023-04-03T13:38:33.940Z,46.70
2023-04-03T13:41:22.872Z,46.70
2023-04-03T13:43:55.477Z,46.10
2023-04-03T13:46:32.157Z,46.40
2023-04-03T13:49:17.838Z,46.10
2023-04-03T13:51:47.698Z,46.80
2023-04-03T13:54:23.831Z,45.70
2023-04-03T13:56:58.225Z,45.30
2023-04-03T13:59:33.799Z,45.30
2023-04-03T14:02:04.131Z,44.90
2023-04-03T14:04:34.033Z,44.70
2023-04-03T14:07:01.489Z,44.70
2023-04-03T14:09:28.867Z,44.90
2023-04-03T14:12:11.355Z,44.80
2023-04-03T14:14:50.721Z,44.30
2023-04-03T14:17:25.247Z,43.60
2023-04-03T14:19:54.285Z,42.80
2023-04-03T14:22:27.257Z,43.40
2023-04-03T14:25:00.050Z,43.70
2023-04-03T14:27:35.941Z,43.80
2023-04-03T14:30:05.092Z,43.90
2023-04-03T14:32:32.532Z,44.10
2023-04-03T14:35:02.029Z,43.60
2023-04-03T14:37:31.407Z,44.20
2023-04-03T14:40:01.397Z,44.00
2023-04-03T14:42:32.573Z,43.60
2023-04-03T14:45:12.198Z,43.60
2023-04-03T14:47:48.588Z,43.50
2023-04-03T14:50:19.321Z,43.30
2023-04-03T14:52:46.630Z,43.50
2023-04-03T14:55:19.386Z,43.60
2023-04-03T14:57:52.024Z,43.30
2023-04-03T15:00:21.757Z,43.20
2023-04-03T15:02:51.601Z,42.20
2023-04-03T15:05:21.276Z,42.60
2023-04-03T15:07:53.510Z,42.60
2023-04-03T15:10:24.673Z,42.70
2023-04-03T15:12:53.305Z,43.20
2023-04-03T15:15:24.495Z,43.10
2023-04-03T15:17:58.990Z,43.20
2023-04-03T15:20:31.369Z,43.00
2023-04-03T15:23:01.706Z,42.80
2023-04-03T15:25:32.474Z,42.80
2023-04-03T15:28:04.780Z,42.70
2023-04-03T15:30:32.352Z,42.40
2023-04-03T15:32:59.613Z,42.40
2023-04-03T15:35:29.270Z,42.60
2023-04-03T15:37:56.576Z,42.40
2023-04-03T15:40:26.741Z,42.10
2023-04-03T15:42:54.543Z,42.20
2023-04-03T15:45:24.351Z,42.40
2023-04-03T15:47:52.355Z,42.30
2023-04-03T15:50:20.110Z,42.50
2023-04-03T15:52:54.990Z,42.60
2023-04-03T15:55:23.897Z,42.80
2023-04-03T15:57:51.527Z,43.00
2023-04-03T16:00:21.617Z,43.00
2023-04-03T16:02:54.272Z,43.10
2023-04-03T16:05:21.840Z,42.60
2023-04-03T16:07:51.973Z,42.60
2023-04-03T16:10:19.371Z,42.40
2023-04-03T16:12:46.991Z,42.60
2023-04-03T16:15:14.525Z,42.50
2023-04-03T16:17:44.538Z,42.70
2023-04-03T16:20:14.947Z,42.80
2023-04-03T16:22:43.076Z,43.10
2023-04-03T16:25:11.221Z,43.30
2023-04-03T16:27:39.113Z,43.50
2023-04-03T16:30:07.982Z,42.90
2023-04-03T16:32:35.908Z,43.10
2023-04-03T16:35:03.715Z,43.30
2023-04-03T16:37:32.654Z,43.20
2023-04-03T16:40:03.968Z,43.20
2023-04-03T16:42:31.243Z,43.20
2023-04-03T16:44:59.838Z,43.30
2023-04-03T16:47:27.118Z,43.10
2023-04-03T16:49:54.508Z,43.10
2023-04-03T16:52:24.242Z,43.20
2023-04-03T16:54:56.274Z,43.20
2023-04-03T16:57:26.345Z,43.30
2023-04-03T16:59:56.968Z,43.50
2023-04-03T17:02:28.985Z,43.50
2023-04-03T17:04:56.337Z,43.70
2023-04-03T17:07:25.347Z,43.90
2023-04-03T17:09:55.508Z,43.90
2023-04-03T17:12:23.302Z,44.00
2023-04-03T17:14:50.923Z,44.00
2023-04-03T17:17:23.611Z,44.00
2023-04-03T17:19:54.927Z,44.20
2023-04-03T17:22:22.247Z,44.40
2023-04-03T17:24:49.575Z,44.60
2023-04-03T17:27:16.907Z,44.90
2023-04-03T17:29:44.140Z,45.30
2023-04-03T17:32:11.601Z,45.30
2023-04-03T17:34:39.905Z,45.00
2023-04-03T17:37:09.756Z,44.60
2023-04-03T17:39:39.482Z,44.50
2023-04-03T17:42:08.984Z,44.70
2023-04-03T17:44:38.520Z,44.60
2023-04-03T17:47:05.808Z,44.50
2023-04-03T17:49:33.508Z,44.70
2023-04-03T17:52:00.898Z,44.60
2023-04-03T17:54:28.173Z,44.60
2023-04-03T17:56:58.031Z,44.70
2023-04-03T17:59:28.328Z,44.50
2023-04-03T18:01:56.863Z,44.50
2023-04-03T18:04:25.241Z,44.70
2023-04-03T18:06:55.463Z,44.70
2023-04-03T18:09:31.378Z,44.70
2023-04-03T18:12:00.665Z,44.70
2023-04-03T18:14:28.515Z,44.90
2023-04-03T18:16:58.853Z,44.70
2023-04-03T18:19:28.430Z,44.80
2023-04-03T18:22:03.259Z,44.60
2023-04-03T18:24:37.120Z,45.60
2023-04-03T18:27:14.135Z,45.00
2023-04-03T18:29:43.836Z,45.20
2023-04-03T18:32:14.742Z,45.40
2023-04-03T18:34:44.896Z,45.50
2023-04-03T18:37:15.497Z,45.30
2023-04-03T18:39:43.193Z,45.50
2023-04-03T18:42:15.288Z,45.50
2023-04-03T18:44:45.589Z,45.50
2023-04-03T18:47:13.142Z,45.60
2023-04-03T18:49:42.708Z,45.60
2023-04-03T18:52:12.034Z,45.60
2023-04-03T18:54:39.531Z,45.60
2023-04-03T18:57:09.446Z,45.60
2023-04-03T18:59:37.572Z,45.80
2023-04-03T19:02:11.391Z,45.80
2023-04-03T19:04:41.005Z,45.90
2023-04-03T19:07:10.234Z,46.30
2023-04-03T19:09:42.923Z,46.30
2023-04-03T19:12:10.209Z,46.50
2023-04-03T19:14:37.419Z,46.60
2023-04-03T19:17:08.239Z,46.50
2023-04-03T19:19:35.707Z,46.60
2023-04-03T19:22:03.035Z,46.70
2023-04-03T19:24:30.536Z,46.60
2023-04-03T19:26:57.786Z,46.80
2023-04-03T19:29:25.156Z,46.90
2023-04-03T19:31:54.701Z,46.90
2023-04-03T19:34:22.038Z,46.90
2023-04-03T19:36:52.179Z,46.90
2023-04-03T19:39:19.541Z,47.00
2023-04-03T19:41:47.077Z,47.10
2023-04-03T19:44:16.776Z,47.10
2023-04-03T19:46:51.558Z,47.10
2023-04-03T19:49:25.005Z,47.20
2023-04-03T19:51:53.421Z,47.20
2023-04-03T19:54:23.708Z,47.20
2023-04-03T19:56:57.824Z,47.20
2023-04-03T19:59:25.149Z,47.20
2023-04-03T20:01:52.994Z,47.20
2023-04-03T20:04:22.803Z,47.30
2023-04-03T20:06:50.787Z,47.50
2023-04-03T20:09:21.876Z,47.40
2023-04-03T20:11:49.124Z,47.40
2023-04-03T20:14:17.490Z,47.40
2023-04-03T20:16:48.464Z,47.40
2023-04-03T20:19:16.759Z,47.60
2023-04-03T20:21:49.011Z,47.60
2023-04-03T20:24:18.544Z,47.60
2023-04-03T20:26:47.274Z,47.60
2023-04-03T20:29:16.570Z,48.20
2023-04-03T20:31:44.201Z,47.60
2023-04-03T20:34:11.821Z,47.80
2023-04-03T20:36:41.667Z,47.80
2023-04-03T20:39:11.575Z,47.90
2023-04-03T20:41:39.403Z,47.90
2023-04-03T20:44:09.234Z,47.80
2023-04-03T20:46:51.432Z,47.70
2023-04-03T20:49:20.810Z,47.80
2023-04-03T20:51:51.213Z,47.90
2023-04-03T20:54:19.154Z,47.70
2023-04-03T20:56:51.436Z,47.70
2023-04-03T20:59:19.216Z,48.00
2023-04-03T21:01:49.925Z,48.00
2023-04-03T21:04:27.593Z,48.00
2023-04-03T21:07:32.766Z,48.10
2023-04-03T21:10:40.349Z,48.10
2023-04-03T21:13:46.519Z,48.10
2023-04-03T21:16:13.735Z,48.30
2023-04-03T21:18:48.443Z,48.20
2023-04-03T21:21:24.550Z,48.40
2023-04-03T21:23:54.062Z,48.20
2023-04-03T21:26:22.373Z,48.40
2023-04-03T21:28:55.917Z,48.40
2023-04-03T21:31:23.763Z,48.70
2023-04-03T21:33:51.446Z,48.30
2023-04-03T21:36:18.757Z,48.30
2023-04-03T21:38:47.739Z,48.30
2023-04-03T21:41:17.508Z,48.50
2023-04-03T21:43:47.017Z,48.50
2023-04-03T21:46:14.356Z,48.50
2023-04-03T21:48:41.677Z,48.50
2023-04-03T21:51:11.756Z,48.50
2023-04-03T21:53:41.979Z,48.60
2023-04-03T21:56:11.454Z,49.20
2023-04-03T21:58:38.791Z,48.60
2023-04-03T22:01:12.733Z,48.60
2023-04-03T22:03:44.101Z,48.70
2023-04-03T22:06:16.266Z,48.70
2023-04-03T22:08:44.214Z,48.70
2023-04-03T22:11:16.484Z,48.60
2023-04-03T22:13:50.948Z,48.70
2023-04-03T22:16:18.329Z,48.70
2023-04-03T22:18:45.793Z,48.70
2023-04-03T22:21:13.043Z,48.60
2023-04-03T22:23:40.282Z,48.40
2023-04-03T22:26:11.769Z,48.30
2023-04-03T22:28:44.195Z,48.00
2023-04-03T22:31:17.171Z,47.90
2023-04-03T22:33:47.928Z,47.70
2023-04-03T22:36:15.574Z,47.60
2023-04-03T22:38:46.823Z,47.50
2023-04-03T22:41:16.532Z,47.10
2023-04-03T22:43:43.812Z,47.00
2023-04-03T22:46:11.183Z,46.70
2023-04-03T22:48:42.469Z,46.60
2023-04-03T22:51:12.543Z,46.90
2023-04-03T22:53:42.365Z,46.20
2023-04-03T22:56:13.108Z,46.00
2023-04-03T22:58:40.478Z,45.60
2023-04-03T23:01:15.052Z,45.20
2023-04-03T23:03:43.123Z,44.70
2023-04-03T23:06:10.903Z,44.80
2023-04-03T23:08:38.790Z,44.60
2023-04-03T23:11:12.150Z,44.60
2023-04-03T23:13:43.643Z,44.20
2023-04-03T23:16:11.930Z,44.10
2023-04-03T23:18:40.115Z,44.10
2023-04-03T23:21:09.876Z,43.40
2023-04-03T23:23:37.154Z,43.50
2023-04-03T23:26:04.622Z,43.40
2023-04-03T23:28:34.474Z,43.60
2023-04-03T23:31:06.860Z,43.70
2023-04-03T23:33:36.575Z,43.80
2023-04-03T23:36:08.162Z,43.70
2023-04-03T23:38:38.557Z,43.60
2023-04-03T23:41:06.263Z,43.70
2023-04-03T23:43:37.079Z,43.70
2023-04-03T23:46:04.431Z,43.80
2023-04-03T23:48:34.154Z,43.80
2023-04-03T23:51:03.797Z,43.50
2023-04-03T23:53:33.573Z,43.60
2023-04-03T23:56:00.819Z,43.20
2023-04-03T23:58:28.093Z,43.20
